Řízení letového provozu České republiky
Letiste: LKTB Aktualizace: 13.11.2019 19:30:26  UTC
 METAR LKTB 13.11. 19:30 ...
METAR LKTB 131930Z 27010KT 9999 SCT013 04/02 Q1005 NOSIG RMK REG QNH 1000=
 TAF LKTB 13.11. 17:00 ...
TAF LKTB 131700Z 1318/1500 30008KT 8000 BKN015      TEMPO 1318/1400 4000 RA BR BKN005      BECMG 1400/1403 VRB02KT 2000 MIFG SCT002      TEMPO 1403/1409 1200 BR OVC002      PROB30 TEMPO 1404/1409 0400 FZFG BKN001      BECMG 1409/1411 11008KT 6000 BKN010      PROB30 TEMPO 1411/1416 3000 RA BR BKN006      BECMG 1416/1418 08005KT 9999 SCT030=